Time;durP1;ratioP1;P1;durP2;ratioP2;P2;SDS_P1;SDS_P2;PMS_P1;PMS_P2;Temp;Humidity;BMP_temperature;BMP_pressure;BME280_temperature;BME280_humidity;BME280_pressure;Samples;Min_cycle;Max_cycle;Signal;HPM_P1;HPM_P2
2023/05/15 00:00:09;;;;;;;17.90;14.07;;;13.60;99.90;;;;;;5013512;28;20029;-55
2023/05/15 00:02:36;;;;;;;16.70;14.15;;;13.60;99.90;;;;;;5013663;28;20104;-52
2023/05/15 00:05:06;;;;;;;19.40;14.50;;;13.50;99.90;;;;;;5029369;28;20112;-53
2023/05/15 00:07:32;;;;;;;19.30;14.48;;;13.50;99.90;;;;;;5029436;28;20399;-55
2023/05/15 00:09:58;;;;;;;20.55;14.32;;;13.40;99.90;;;;;;5024388;28;20069;-50
2023/05/15 00:12:24;;;;;;;30.10;16.67;;;13.40;99.90;;;;;;5021011;28;20507;-52
2023/05/15 00:14:49;;;;;;;31.90;18.20;;;13.30;99.90;;;;;;5019451;28;20063;-53
2023/05/15 00:17:15;;;;;;;22.55;17.17;;;13.30;99.90;;;;;;5025439;28;20030;-52
2023/05/15 00:19:41;;;;;;;30.27;19.33;;;13.20;99.90;;;;;;5017128;28;20472;-54
2023/05/15 00:22:07;;;;;;;19.67;15.75;;;13.20;99.90;;;;;;5026176;28;20488;-52
2023/05/15 00:24:33;;;;;;;20.60;15.23;;;13.20;99.90;;;;;;5031173;28;20026;-55
2023/05/15 00:27:00;;;;;;;23.10;16.95;;;13.20;99.90;;;;;;5029449;28;20091;-55
2023/05/15 00:29:25;;;;;;;27.25;19.23;;;13.10;99.90;;;;;;5029930;28;20029;-52
2023/05/15 00:31:51;;;;;;;32.78;20.25;;;13.10;99.90;;;;;;5019133;28;20496;-54
2023/05/15 00:34:17;;;;;;;25.02;18.27;;;13.10;99.90;;;;;;5028343;28;20030;-53
2023/05/15 00:36:43;;;;;;;25.30;18.52;;;13.00;99.90;;;;;;5014037;28;20508;-56
2023/05/15 00:39:09;;;;;;;22.73;17.67;;;13.00;99.90;;;;;;5015376;28;20071;-55
2023/05/15 00:41:36;;;;;;;51.67;21.50;;;13.00;99.90;;;;;;5026445;28;20266;-57
2023/05/15 00:44:02;;;;;;;72.35;24.92;;;13.00;99.90;;;;;;5012740;28;20073;-52
2023/05/15 00:46:31;;;;;;;24.98;16.08;;;13.00;99.90;;;;;;5015860;28;20068;-54
2023/05/15 00:48:57;;;;;;;67.78;23.45;;;13.00;99.90;;;;;;5028527;28;20510;-54
2023/05/15 00:51:23;;;;;;;21.45;16.35;;;13.00;99.90;;;;;;5020977;28;20041;-53
2023/05/15 00:53:51;;;;;;;34.22;19.77;;;12.90;99.90;;;;;;5023269;28;20022;-54
2023/05/15 00:56:17;;;;;;;24.65;18.30;;;12.90;99.90;;;;;;5017311;28;20006;-53
2023/05/15 00:58:46;;;;;;;17.55;14.50;;;12.90;99.90;;;;;;5024521;28;20033;-53
2023/05/15 01:01:14;;;;;;;12.52;11.23;;;12.90;99.90;;;;;;5024346;28;20025;-52
2023/05/15 01:03:40;;;;;;;13.68;10.18;;;12.80;99.90;;;;;;5013003;28;20037;-54
2023/05/15 01:06:06;;;;;;;47.88;10.32;;;12.80;99.90;;;;;;5018759;28;20016;-55
2023/05/15 01:08:45;;;;;;;79.78;16.92;;;12.80;99.90;;;;;;5017491;28;20069;-53
2023/05/15 01:11:12;;;;;;;35.38;14.43;;;12.70;99.90;;;;;;5014498;28;20427;-53
2023/05/15 01:13:38;;;;;;;136.95;22.75;;;12.70;99.90;;;;;;5032500;28;20030;-53
2023/05/15 01:16:05;;;;;;;91.82;19.38;;;12.70;99.90;;;;;;5032583;28;20128;-52
2023/05/15 01:18:31;;;;;;;56.70;14.57;;;12.70;99.90;;;;;;5032051;28;20033;-53
2023/05/15 01:21:34;;;;;;;64.57;15.43;;;12.60;99.90;;;;;;5031519;28;20431;-53
2023/05/15 01:24:21;;;;;;;31.38;11.93;;;12.60;99.90;;;;;;5025207;28;20034;-56
2023/05/15 01:27:12;;;;;;;21.05;9.55;;;12.60;99.90;;;;;;5012655;28;20476;-52
2023/05/15 01:29:43;;;;;;;37.47;12.77;;;12.50;99.90;;;;;;5013705;28;20047;-55
2023/05/15 01:32:22;;;;;;;68.57;13.77;;;12.50;99.90;;;;;;5017935;28;20048;-55
2023/05/15 01:35:23;;;;;;;57.88;10.77;;;12.50;99.90;;;;;;5016677;28;20061;-57
2023/05/15 01:38:16;;;;;;;61.08;14.05;;;12.40;99.90;;;;;;5008095;28;20038;-52
2023/05/15 01:40:44;;;;;;;65.95;14.20;;;12.30;99.90;;;;;;4996312;28;20049;-54
2023/05/15 01:43:17;;;;;;;43.78;17.02;;;12.30;99.90;;;;;;5015876;28;20042;-51
2023/05/15 01:45:43;;;;;;;26.60;13.38;;;12.20;99.90;;;;;;5016768;28;20077;-52
2023/05/15 01:48:11;;;;;;;36.15;12.45;;;12.20;99.90;;;;;;5016326;28;20026;-54
2023/05/15 01:50:39;;;;;;;88.40;15.10;;;12.20;99.90;;;;;;5015727;28;20034;-56
2023/05/15 01:53:08;;;;;;;36.45;13.07;;;12.10;99.90;;;;;;5016532;28;20026;-54
2023/05/15 01:55:34;;;;;;;124.32;18.55;;;12.10;99.90;;;;;;5016006;28;20041;-56
2023/05/15 01:58:01;;;;;;;91.80;17.73;;;12.10;99.90;;;;;;5016056;28;20018;-53
2023/05/15 02:00:28;;;;;;;37.55;14.27;;;12.00;99.90;;;;;;5022646;28;20384;-56
2023/05/15 02:02:56;;;;;;;68.60;15.75;;;12.10;99.90;;;;;;5035659;28;20487;-51
2023/05/15 02:05:23;;;;;;;34.33;14.70;;;12.10;99.90;;;;;;5036129;28;20072;-57
2023/05/15 02:07:50;;;;;;;16.08;13.70;;;12.10;99.90;;;;;;5035790;28;20029;-56
2023/05/15 02:10:17;;;;;;;10.30;9.30;;;12.10;99.90;;;;;;5035844;28;20365;-53
2023/05/15 02:12:43;;;;;;;12.38;9.77;;;12.00;99.90;;;;;;5036391;28;20021;-53
2023/05/15 02:15:10;;;;;;;69.32;17.80;;;12.10;99.90;;;;;;5035538;28;20067;-53
2023/05/15 02:17:36;;;;;;;66.85;13.95;;;12.00;99.90;;;;;;5033645;28;20025;-53
2023/05/15 02:20:05;;;;;;;56.33;14.13;;;12.00;99.90;;;;;;5034543;28;20499;-57
2023/05/15 02:22:31;;;;;;;77.70;14.00;;;12.00;99.90;;;;;;5035077;28;20116;-54
2023/05/15 02:25:02;;;;;;;50.03;14.50;;;12.00;99.90;;;;;;5035717;28;20018;-55
2023/05/15 02:27:34;;;;;;;55.53;14.15;;;11.90;99.90;;;;;;5035554;28;20048;-55
2023/05/15 02:30:28;;;;;;;67.72;17.08;;;11.90;99.90;;;;;;5036064;28;20068;-51
2023/05/15 02:33:30;;;;;;;32.33;14.35;;;11.90;99.90;;;;;;5035449;28;20118;-55
2023/05/15 02:36:02;;;;;;;14.95;11.52;;;12.00;99.90;;;;;;5035523;28;20021;-53
2023/05/15 02:38:45;;;;;;;13.80;10.93;;;12.00;99.90;;;;;;5035704;28;20034;-57
2023/05/15 02:41:12;;;;;;;15.05;13.43;;;12.00;99.90;;;;;;5033508;28;20079;-55
2023/05/15 02:43:39;;;;;;;11.45;10.32;;;12.00;99.90;;;;;;5034998;28;20127;-53
2023/05/15 02:46:06;;;;;;;12.00;10.70;;;12.00;99.90;;;;;;5034925;28;20105;-53
2023/05/15 02:48:34;;;;;;;13.40;12.00;;;12.00;99.90;;;;;;5034875;28;20083;-54
2023/05/15 02:51:00;;;;;;;12.18;10.95;;;12.00;99.90;;;;;;5027879;28;20034;-54
2023/05/15 02:53:27;;;;;;;11.93;10.82;;;12.10;99.90;;;;;;5031149;28;20459;-56
2023/05/15 02:55:53;;;;;;;11.50;10.32;;;12.10;99.90;;;;;;5025012;28;20025;-51
2023/05/15 02:58:18;;;;;;;11.00;9.85;;;12.10;99.90;;;;;;5014759;28;20117;-54
2023/05/15 03:00:44;;;;;;;13.85;11.70;;;12.10;99.90;;;;;;5021555;28;20392;-53
2023/05/15 03:03:10;;;;;;;10.98;9.80;;;12.10;99.90;;;;;;5034527;28;20031;-53
2023/05/15 03:05:35;;;;;;;10.57;9.52;;;12.10;99.90;;;;;;5028709;28;20391;-54
2023/05/15 03:08:01;;;;;;;8.40;7.60;;;12.00;99.90;;;;;;5016251;28;20491;-55
2023/05/15 03:10:26;;;;;;;9.07;8.18;;;12.00;99.90;;;;;;5019130;28;20427;-56
2023/05/15 03:12:57;;;;;;;9.20;8.13;;;12.00;99.90;;;;;;5015069;28;20026;-50
2023/05/15 03:15:22;;;;;;;10.10;7.75;;;12.10;99.90;;;;;;5016635;28;20038;-53
2023/05/15 03:17:48;;;;;;;8.75;7.95;;;12.00;99.90;;;;;;5003716;28;20057;-53
2023/05/15 03:20:14;;;;;;;10.95;9.52;;;12.00;99.90;;;;;;5023882;28;20029;-54
2023/05/15 03:22:40;;;;;;;10.30;9.30;;;12.00;99.90;;;;;;5032504;28;20052;-52
2023/05/15 03:25:09;;;;;;;11.45;8.45;;;12.00;99.90;;;;;;5033010;28;20030;-55
2023/05/15 03:27:35;;;;;;;10.32;9.05;;;12.00;99.90;;;;;;5026955;28;20057;-54
2023/05/15 03:30:01;;;;;;;10.23;9.23;;;12.00;99.90;;;;;;5015411;28;20032;-53
2023/05/15 03:32:27;;;;;;;10.30;9.10;;;11.90;99.90;;;;;;5018272;28;20072;-51
2023/05/15 03:34:52;;;;;;;9.15;8.25;;;11.90;99.90;;;;;;5015373;28;20049;-55
2023/05/15 03:37:19;;;;;;;8.93;8.02;;;11.90;99.90;;;;;;5033691;28;20033;-55
2023/05/15 03:39:45;;;;;;;8.43;7.63;;;11.90;99.90;;;;;;5033653;28;20420;-52
2023/05/15 03:42:10;;;;;;;8.27;7.40;;;11.90;99.90;;;;;;5024230;28;20065;-55
2023/05/15 03:44:36;;;;;;;9.35;6.50;;;11.90;99.90;;;;;;5028845;28;20057;-54
2023/05/15 03:47:02;;;;;;;8.95;7.40;;;11.90;99.90;;;;;;5031711;28;20025;-53
2023/05/15 03:49:27;;;;;;;7.57;6.80;;;11.90;99.90;;;;;;5026313;28;20029;-54
2023/05/15 03:51:53;;;;;;;14.32;6.75;;;11.90;99.90;;;;;;5013329;28;20571;-55
2023/05/15 03:54:19;;;;;;;7.97;7.20;;;11.90;99.90;;;;;;5025616;28;20021;-53
2023/05/15 03:56:44;;;;;;;8.45;7.20;;;11.90;99.90;;;;;;5032605;28;20018;-51
2023/05/15 03:59:10;;;;;;;8.18;6.88;;;11.90;99.90;;;;;;5032671;28;20100;-51
2023/05/15 04:01:36;;;;;;;9.15;8.13;;;12.00;99.90;;;;;;5032601;28;20035;-51
2023/05/15 04:04:02;;;;;;;9.68;8.77;;;12.00;99.90;;;;;;5032781;28;20048;-55
2023/05/15 04:06:28;;;;;;;9.23;8.43;;;12.00;99.90;;;;;;5032613;28;20040;-51
2023/05/15 04:08:53;;;;;;;8.75;7.95;;;12.00;99.90;;;;;;5032464;28;20029;-50
2023/05/15 04:11:20;;;;;;;10.20;9.07;;;12.00;99.90;;;;;;5032591;28;20115;-52
2023/05/15 04:13:46;;;;;;;12.02;10.73;;;12.00;99.90;;;;;;5029680;28;20040;-52
2023/05/15 04:16:11;;;;;;;11.05;9.88;;;12.00;99.90;;;;;;5022137;28;20029;-52
2023/05/15 04:18:37;;;;;;;13.60;11.55;;;12.00;99.90;;;;;;5016031;28;20042;-53
2023/05/15 04:21:03;;;;;;;16.95;14.82;;;12.00;99.90;;;;;;5012466;28;20037;-50
2023/05/15 04:23:28;;;;;;;15.77;12.85;;;12.00;99.90;;;;;;5012638;28;20485;-52
2023/05/15 04:25:54;;;;;;;15.20;13.52;;;12.00;99.90;;;;;;5012602;28;20563;-51
2023/05/15 04:28:20;;;;;;;22.45;18.58;;;12.00;99.90;;;;;;5021982;28;20021;-53
2023/05/15 04:30:46;;;;;;;17.13;13.17;;;12.10;99.90;;;;;;5032232;28;20036;-51
2023/05/15 04:33:11;;;;;;;14.07;12.52;;;12.10;99.90;;;;;;5032198;28;20259;-51
2023/05/15 04:35:37;;;;;;;11.82;10.70;;;12.10;99.90;;;;;;5032079;28;20480;-55
2023/05/15 04:38:03;;;;;;;10.32;9.32;;;12.20;99.90;;;;;;5031962;28;20052;-51
2023/05/15 04:40:29;;;;;;;10.32;9.35;;;12.20;99.90;;;;;;5030885;28;20037;-52
2023/05/15 04:42:55;;;;;;;15.23;10.63;;;12.20;99.90;;;;;;5032479;28;20368;-50
2023/05/15 04:45:20;;;;;;;9.65;8.75;;;12.30;99.90;;;;;;5031995;28;20083;-50
2023/05/15 04:47:46;;;;;;;11.60;10.40;;;12.40;99.90;;;;;;5031781;28;20033;-53
2023/05/15 04:50:11;;;;;;;11.77;10.25;;;12.40;99.90;;;;;;5031731;28;20029;-54
2023/05/15 04:52:37;;;;;;;12.35;11.13;;;12.50;99.90;;;;;;5030690;28;20032;-51
2023/05/15 04:55:03;;;;;;;11.05;10.05;;;12.50;99.90;;;;;;5031999;28;20018;-50
2023/05/15 04:57:29;;;;;;;10.77;9.60;;;12.60;99.90;;;;;;5031734;28;20483;-50
2023/05/15 04:59:56;;;;;;;11.13;10.02;;;12.70;99.90;;;;;;5031855;28;20032;-50
2023/05/15 05:02:23;;;;;;;11.32;10.20;;;12.70;99.90;;;;;;5031884;28;20028;-53
2023/05/15 05:04:49;;;;;;;9.80;8.82;;;12.80;99.90;;;;;;5030881;28;20032;-51
2023/05/15 05:07:15;;;;;;;11.45;9.65;;;12.90;99.90;;;;;;5031839;28;20032;-50
2023/05/15 05:09:40;;;;;;;11.95;10.38;;;12.90;99.90;;;;;;5031652;28;20101;-50
2023/05/15 05:12:07;;;;;;;12.98;11.48;;;13.00;99.90;;;;;;5032015;28;20365;-52
2023/05/15 05:14:33;;;;;;;13.23;11.93;;;13.00;99.90;;;;;;5031643;28;20025;-50
2023/05/15 05:16:59;;;;;;;15.52;12.48;;;13.00;99.90;;;;;;5069181;23;20110;-50
2023/05/15 05:19:26;;;;;;;15.55;13.23;;;12.90;99.90;;;;;;5031433;28;20032;-52
2023/05/15 05:21:52;;;;;;;15.85;13.27;;;12.90;99.90;;;;;;5031598;28;20022;-49
2023/05/15 05:24:18;;;;;;;15.23;13.02;;;12.80;99.90;;;;;;5031615;28;20125;-49
2023/05/15 05:26:44;;;;;;;14.07;12.57;;;12.80;99.90;;;;;;5036757;28;20051;-52
2023/05/15 05:29:10;;;;;;;19.70;13.40;;;12.70;99.90;;;;;;5033301;28;20120;-46
2023/05/15 05:31:35;;;;;;;17.13;15.27;;;12.70;99.90;;;;;;5023087;28;20025;-49
2023/05/15 05:34:01;;;;;;;17.45;14.07;;;12.70;99.90;;;;;;5017454;28;20084;-47
2023/05/15 05:36:27;;;;;;;17.55;13.55;;;12.70;99.90;;;;;;5021462;28;20024;-47
2023/05/15 05:38:52;;;;;;;17.20;13.77;;;12.70;99.90;;;;;;5011643;28;20507;-46
2023/05/15 05:41:18;;;;;;;16.92;13.40;;;12.70;99.90;;;;;;5021749;28;20716;-47
2023/05/15 05:43:44;;;;;;;13.90;12.48;;;12.80;99.90;;;;;;5013075;28;20446;-46
2023/05/15 05:46:09;;;;;;;18.60;13.63;;;12.80;99.90;;;;;;5020193;28;20024;-50
2023/05/15 05:48:35;;;;;;;15.38;13.77;;;12.80;99.90;;;;;;5012369;28;20467;-48
2023/05/15 05:51:01;;;;;;;13.90;12.25;;;12.90;99.90;;;;;;5017929;28;20034;-49
2023/05/15 05:53:27;;;;;;;13.25;11.82;;;13.00;99.90;;;;;;5015026;28;20026;-46
2023/05/15 05:55:53;;;;;;;12.55;11.35;;;13.20;99.90;;;;;;5016621;28;20077;-43
2023/05/15 05:58:19;;;;;;;14.45;12.75;;;13.30;99.90;;;;;;5015975;28;20018;-42
2023/05/15 06:00:46;;;;;;;12.43;11.13;;;13.30;99.90;;;;;;5013786;28;20385;-45
2023/05/15 06:03:11;;;;;;;20.43;11.73;;;13.50;99.90;;;;;;5025798;28;20028;-45
2023/05/15 06:05:37;;;;;;;13.85;11.70;;;13.50;99.90;;;;;;5024789;28;20026;-45
2023/05/15 06:08:03;;;;;;;15.32;12.18;;;13.60;99.90;;;;;;5018082;28;20503;-44
2023/05/15 06:10:29;;;;;;;15.15;13.25;;;13.70;99.90;;;;;;5014730;28;20504;-44
2023/05/15 06:12:55;;;;;;;27.27;14.88;;;13.80;99.90;;;;;;5019215;28;20026;-45
2023/05/15 06:15:21;;;;;;;22.13;16.40;;;13.90;99.90;;;;;;5013762;28;20044;-45
2023/05/15 06:17:46;;;;;;;17.58;15.57;;;13.90;99.90;;;;;;5023601;28;20097;-44
2023/05/15 06:20:14;;;;;;;22.92;17.90;;;13.90;99.90;;;;;;5017541;28;20567;-44
2023/05/15 06:22:40;;;;;;;22.95;18.25;;;13.90;99.90;;;;;;5022526;28;20030;-44
2023/05/15 06:25:07;;;;;;;26.70;17.60;;;13.90;99.90;;;;;;5036518;28;20022;-46
2023/05/15 06:27:33;;;;;;;22.77;16.77;;;14.10;99.90;;;;;;5023537;28;20048;-44
2023/05/15 06:29:59;;;;;;;21.83;18.63;;;14.20;99.90;;;;;;5017131;28;20028;-42
2023/05/15 06:32:25;;;;;;;23.65;17.40;;;14.40;99.90;;;;;;5022554;28;20025;-44
2023/05/15 06:34:50;;;;;;;19.67;17.50;;;14.60;99.90;;;;;;5032604;28;20020;-45
2023/05/15 06:37:16;;;;;;;20.95;18.65;;;14.80;99.90;;;;;;5023278;28;20030;-44
2023/05/15 06:39:42;;;;;;;21.27;18.23;;;14.90;99.90;;;;;;5016048;28;20021;-44
2023/05/15 06:42:07;;;;;;;22.52;18.75;;;15.10;99.90;;;;;;5024495;28;20066;-44
2023/05/15 06:44:34;;;;;;;19.42;17.20;;;15.10;99.90;;;;;;5014872;28;20072;-49
2023/05/15 06:46:59;;;;;;;25.35;20.73;;;15.10;99.90;;;;;;5022978;28;20083;-47
2023/05/15 06:49:26;;;;;;;26.85;21.80;;;15.10;99.90;;;;;;5033510;28;20479;-51
2023/05/15 06:51:53;;;;;;;22.50;19.05;;;15.10;99.90;;;;;;5025288;28;20037;-51
2023/05/15 06:54:19;;;;;;;;;;;15.20;99.90;;;;;;5014960;28;20014;-51
2023/05/15 06:56:45;;;;;;;24.00;19.38;;;15.30;99.90;;;;;;5022339;28;19912;-47
2023/05/15 06:59:10;;;;;;;21.25;18.00;;;15.40;99.90;;;;;;5033945;28;20022;-50
2023/05/15 07:01:37;;;;;;;26.20;18.67;;;15.50;99.90;;;;;;5018725;28;20488;-49
2023/05/15 07:04:03;;;;;;;23.98;18.15;;;15.60;99.90;;;;;;5034158;28;20057;-52
2023/05/15 07:06:30;;;;;;;21.85;17.95;;;15.80;99.90;;;;;;5027275;28;20107;-48
2023/05/15 07:08:57;;;;;;;21.63;18.10;;;15.90;99.90;;;;;;5014119;28;20045;-52
2023/05/15 07:11:22;;;;;;;20.40;17.87;;;16.00;99.90;;;;;;5024759;28;20584;-55
2023/05/15 07:13:48;;;;;;;24.63;21.83;;;16.00;99.90;;;;;;5014425;28;20049;-46
2023/05/15 07:16:13;;;;;;;22.27;19.83;;;16.00;99.90;;;;;;5022882;28;20038;-52
2023/05/15 07:18:39;;;;;;;25.23;19.70;;;16.00;99.90;;;;;;5015489;28;20022;-50
2023/05/15 07:21:05;;;;;;;21.23;18.25;;;16.00;99.90;;;;;;5022240;28;20030;-53
2023/05/15 07:23:30;;;;;;;21.17;18.45;;;16.10;99.90;;;;;;5016840;28;20037;-52
2023/05/15 07:25:56;;;;;;;19.08;16.85;;;16.10;99.90;;;;;;5019477;28;20116;-55
2023/05/15 07:28:22;;;;;;;16.83;15.02;;;16.30;99.90;;;;;;5016837;28;20060;-55
2023/05/15 07:30:47;;;;;;;20.02;16.20;;;16.40;99.90;;;;;;5013608;28;20028;-55
2023/05/15 07:33:13;;;;;;;19.13;17.08;;;16.50;99.90;;;;;;5013900;28;20026;-52
2023/05/15 07:35:39;;;;;;;17.63;15.90;;;16.40;99.90;;;;;;5013633;28;20120;-52
2023/05/15 07:38:04;;;;;;;18.33;15.85;;;16.40;99.90;;;;;;5013541;28;20072;-49
2023/05/15 07:40:30;;;;;;;18.50;16.52;;;16.60;99.90;;;;;;5013634;28;20030;-52
2023/05/15 07:42:56;;;;;;;22.63;18.35;;;16.70;99.90;;;;;;5013606;28;20101;-54
2023/05/15 07:45:22;;;;;;;19.92;17.83;;;16.70;99.90;;;;;;5013432;28;20034;-47
2023/05/15 07:47:48;;;;;;;19.40;16.92;;;16.60;99.90;;;;;;5013346;28;20022;-51
2023/05/15 07:50:14;;;;;;;18.38;16.48;;;16.60;99.90;;;;;;5013412;28;20034;-49
2023/05/15 07:52:41;;;;;;;19.67;17.58;;;16.50;99.90;;;;;;5013499;28;20022;-53
2023/05/15 07:55:08;;;;;;;18.55;16.48;;;16.50;99.90;;;;;;5013371;28;20014;-47
2023/05/15 07:57:34;;;;;;;18.20;15.93;;;16.50;99.90;;;;;;5013012;28;20021;-49
2023/05/15 08:00:01;;;;;;;19.20;16.08;;;16.50;99.90;;;;;;5013139;28;20018;-53
2023/05/15 08:02:27;;;;;;;18.15;15.52;;;16.60;99.90;;;;;;5013274;28;20064;-49
2023/05/15 08:04:52;;;;;;;18.75;16.48;;;16.50;99.90;;;;;;5013282;28;20029;-52
2023/05/15 08:07:18;;;;;;;17.95;15.98;;;16.40;99.90;;;;;;5013157;28;20400;-48
2023/05/15 08:09:44;;;;;;;19.58;17.55;;;16.30;99.90;;;;;;5013020;28;20502;-47
2023/05/15 08:12:16;;;;;;;23.98;16.52;;;16.20;99.90;;;;;;5012836;28;20113;-53
2023/05/15 08:14:42;;;;;;;20.25;16.50;;;16.20;99.90;;;;;;5011687;28;20109;-47
2023/05/15 08:17:07;;;;;;;19.02;16.55;;;16.20;99.90;;;;;;5012731;28;20164;-50
2023/05/15 08:19:33;;;;;;;19.27;16.63;;;16.30;99.90;;;;;;5012583;28;20108;-52
2023/05/15 08:21:59;;;;;;;18.90;16.52;;;16.20;99.90;;;;;;5012446;28;20030;-47
2023/05/15 08:24:24;;;;;;;18.65;16.65;;;16.20;99.90;;;;;;5012797;28;20034;-50
2023/05/15 08:26:50;;;;;;;20.58;18.33;;;16.20;99.90;;;;;;5012587;28;20025;-51
2023/05/15 08:29:16;;;;;;;18.77;15.77;;;16.20;99.90;;;;;;5011588;28;20028;-54
2023/05/15 08:31:42;;;;;;;21.25;16.38;;;16.10;99.90;;;;;;5010821;28;20029;-49
2023/05/15 08:34:07;;;;;;;19.98;16.73;;;16.00;99.90;;;;;;5012508;28;20073;-49
2023/05/15 08:36:33;;;;;;;17.42;15.45;;;16.10;99.90;;;;;;5012551;28;20032;-48
2023/05/15 08:38:59;;;;;;;17.17;14.85;;;16.00;99.90;;;;;;5012296;28;20025;-49
2023/05/15 08:41:36;;;;;;;17.10;14.63;;;16.10;99.90;;;;;;5012331;28;20030;-47
2023/05/15 08:44:03;;;;;;;16.80;14.98;;;16.00;99.90;;;;;;5012386;28;20032;-49
2023/05/15 08:46:31;;;;;;;18.13;14.90;;;16.10;99.90;;;;;;5012369;28;20030;-49
2023/05/15 08:49:01;;;;;;;16.05;14.10;;;16.20;99.90;;;;;;5012237;28;20032;-50
2023/05/15 08:51:26;;;;;;;15.75;13.65;;;16.30;99.90;;;;;;5012261;28;20091;-55
2023/05/15 08:53:52;;;;;;;16.13;14.52;;;16.40;99.90;;;;;;5010835;28;20033;-53
2023/05/15 08:56:18;;;;;;;18.13;14.93;;;16.50;99.90;;;;;;5012120;28;20404;-52
2023/05/15 08:58:44;;;;;;;17.02;13.95;;;16.60;99.90;;;;;;5012002;28;20022;-51
2023/05/15 09:01:12;;;;;;;15.00;12.15;;;16.70;99.90;;;;;;5012221;28;20026;-46
2023/05/15 09:03:38;;;;;;;14.15;12.57;;;16.70;99.90;;;;;;5012184;28;20026;-51
2023/05/15 09:06:04;;;;;;;12.40;11.07;;;16.70;99.90;;;;;;5012063;28;20163;-49
2023/05/15 09:08:32;;;;;;;13.18;10.05;;;16.80;99.90;;;;;;5011740;28;20026;-52
2023/05/15 09:11:01;;;;;;;10.70;9.57;;;16.90;99.90;;;;;;5011957;28;20026;-54
2023/05/15 09:13:27;;;;;;;13.35;11.60;;;16.90;99.40;;;;;;5012046;28;20032;-48
2023/05/15 09:15:52;;;;;;;11.57;10.25;;;17.10;99.70;;;;;;5011795;28;20038;-51
2023/05/15 09:18:18;;;;;;;10.93;9.30;;;17.10;99.20;;;;;;5010508;28;20097;-49
2023/05/15 09:20:44;;;;;;;9.75;8.45;;;17.20;98.60;;;;;;5011960;28;20026;-50
2023/05/15 09:23:25;;;;;;;10.35;8.90;;;17.20;97.20;;;;;;5011896;28;20032;-49
2023/05/15 09:25:55;;;;;;;10.85;9.35;;;17.30;97.70;;;;;;5011817;28;20034;-48
2023/05/15 09:28:24;;;;;;;10.05;8.98;;;17.40;97.00;;;;;;5011789;28;20053;-50
2023/05/15 09:31:04;;;;;;;10.32;9.13;;;17.40;96.40;;;;;;5010536;28;20029;-51
2023/05/15 09:33:38;;;;;;;12.68;10.23;;;17.50;96.20;;;;;;5011651;28;20034;-49
2023/05/15 09:36:06;;;;;;;10.57;8.52;;;17.60;96.20;;;;;;5012175;28;20026;-49
2023/05/15 09:38:42;;;;;;;10.40;8.23;;;17.60;95.30;;;;;;5011777;28;20061;-53
2023/05/15 09:41:08;;;;;;;8.48;7.65;;;17.60;95.00;;;;;;5011779;28;20080;-47
2023/05/15 09:43:36;;;;;;;9.47;7.33;;;17.70;95.20;;;;;;5011731;28;20080;-52
2023/05/15 09:46:02;;;;;;;11.70;8.65;;;17.80;94.70;;;;;;5011444;28;20411;-51
2023/05/15 09:48:28;;;;;;;9.75;8.75;;;17.90;94.70;;;;;;5011488;28;20030;-52
2023/05/15 09:50:55;;;;;;;9.00;8.10;;;18.10;94.40;;;;;;5013043;28;20519;-51
2023/05/15 09:53:21;;;;;;;7.03;5.85;;;18.20;93.30;;;;;;5015635;28;20027;-49
2023/05/15 09:55:48;;;;;;;7.03;6.32;;;18.20;90.50;;;;;;5015528;28;20777;-49
2023/05/15 09:58:17;;;;;;;8.27;7.40;;;18.20;91.30;;;;;;5015246;28;20037;-52
2023/05/15 10:00:44;;;;;;;11.15;7.50;;;18.20;90.90;;;;;;5014053;28;20060;-52
2023/05/15 10:03:10;;;;;;;;;;;18.10;92.20;;;;;;5015825;28;20025;-54
2023/05/15 10:05:39;;;;;;;9.35;7.78;;;18.10;92.10;;;;;;5015593;28;19912;-47
2023/05/15 10:08:05;;;;;;;10.40;8.50;;;18.10;92.60;;;;;;5015102;28;20026;-52
2023/05/15 10:10:31;;;;;;;9.23;7.95;;;18.10;93.40;;;;;;5014144;28;20037;-53
2023/05/15 10:13:02;;;;;;;9.53;7.70;;;17.90;93.20;;;;;;5014986;28;20033;-45
2023/05/15 10:15:28;;;;;;;11.43;8.85;;;17.90;93.80;;;;;;5015673;28;20662;-46
2023/05/15 10:17:54;;;;;;;9.45;8.00;;;17.90;94.50;;;;;;5029009;28;20040;-47
2023/05/15 10:20:22;;;;;;;8.90;7.78;;;17.90;95.10;;;;;;5034175;28;20053;-56
2023/05/15 10:22:55;;;;;;;8.77;7.82;;;17.90;93.30;;;;;;5013983;28;20026;-55
2023/05/15 10:25:44;;;;;;;10.57;8.48;;;17.90;93.90;;;;;;5020546;28;20029;-53
2023/05/15 10:28:11;;;;;;;12.10;9.43;;;18.00;94.10;;;;;;5020438;28;20112;-51
2023/05/15 10:30:37;;;;;;;10.48;9.38;;;18.00;95.30;;;;;;5026733;28;20030;-55
2023/05/15 10:33:04;;;;;;;9.50;7.97;;;18.00;96.40;;;;;;5033912;28;20061;-56
2023/05/15 10:35:30;;;;;;;10.13;8.43;;;18.20;95.90;;;;;;5021400;28;20029;-52
2023/05/15 10:37:56;;;;;;;11.23;8.80;;;18.20;94.40;;;;;;5025597;28;20025;-54
2023/05/15 10:40:23;;;;;;;9.65;8.65;;;18.30;94.10;;;;;;5018436;28;20101;-51
2023/05/15 10:42:49;;;;;;;12.95;9.13;;;18.40;94.50;;;;;;5025144;28;20112;-47
2023/05/15 10:45:16;;;;;;;8.65;7.85;;;18.50;93.10;;;;;;5022964;28;20481;-49
2023/05/15 10:47:42;;;;;;;;;;;18.50;93.00;;;;;;5033426;28;20104;-52
2023/05/15 10:50:10;;;;;;;10.38;8.00;;;18.50;93.50;;;;;;5028381;28;19909;-53
2023/05/15 10:52:37;;;;;;;11.20;8.60;;;18.40;93.40;;;;;;5011982;28;20057;-55
2023/05/15 10:55:07;;;;;;;9.85;8.50;;;18.40;93.60;;;;;;5024206;28;20029;-48
2023/05/15 10:57:33;;;;;;;10.63;8.30;;;18.50;92.70;;;;;;5033880;28;20470;-54
2023/05/15 11:00:00;;;;;;;10.15;8.00;;;18.70;92.40;;;;;;5030249;28;20021;-55
2023/05/15 11:02:28;;;;;;;;;;;19.00;91.70;;;;;;5031735;28;20377;-51
2023/05/15 11:05:02;;;;;;;7.80;6.80;;;19.30;91.10;;;;;;5014217;28;20307;-52
2023/05/15 11:07:28;;;;;;;9.02;7.85;;;19.50;90.40;;;;;;5012657;28;20134;-52
2023/05/15 11:09:55;;;;;;;9.32;7.35;;;19.50;90.80;;;;;;5013044;28;20030;-51
2023/05/15 11:12:21;;;;;;;;;;;19.60;89.50;;;;;;5023815;28;20392;-50
2023/05/15 11:14:53;;;;;;;8.15;7.35;;;19.60;86.00;;;;;;5016669;28;20292;-51
2023/05/15 11:17:21;;;;;;;7.85;6.75;;;19.80;89.00;;;;;;5018772;28;20029;-50
2023/05/15 11:19:50;;;;;;;10.13;7.28;;;20.00;86.80;;;;;;5033408;28;20484;-55
2023/05/15 11:22:37;;;;;;;8.35;5.70;;;20.10;87.70;;;;;;5032337;28;20065;-54
2023/05/15 11:25:09;;;;;;;8.27;7.37;;;20.40;87.50;;;;;;5032329;28;20116;-53
2023/05/15 11:27:42;;;;;;;7.82;6.95;;;20.60;89.10;;;;;;5031860;28;20033;-54
2023/05/15 11:30:21;;;;;;;7.78;6.35;;;21.00;84.60;;;;;;5015182;28;20496;-51
2023/05/15 11:32:54;;;;;;;7.32;6.63;;;21.00;75.90;;;;;;5013747;28;20033;-52
2023/05/15 11:35:33;;;;;;;5.97;5.25;;;21.00;81.20;;;;;;5013764;28;20141;-52
2023/05/15 11:38:01;;;;;;;7.63;6.20;;;21.10;74.50;;;;;;5020373;28;20512;-55
2023/05/15 11:40:29;;;;;;;7.35;6.63;;;21.00;74.30;;;;;;5014998;28;20033;-54
2023/05/15 11:43:02;;;;;;;7.45;6.65;;;21.00;77.10;;;;;;5027383;28;20072;-53
2023/05/15 11:45:31;;;;;;;10.10;6.78;;;21.10;77.50;;;;;;5014524;28;20032;-55
2023/05/15 11:48:02;;;;;;;6.95;6.35;;;21.10;79.90;;;;;;5013377;28;20488;-53
2023/05/15 11:50:30;;;;;;;8.88;7.30;;;21.10;79.30;;;;;;5028638;28;20030;-50
2023/05/15 11:52:56;;;;;;;8.85;7.20;;;21.10;77.20;;;;;;5029454;28;20080;-54
2023/05/15 11:55:22;;;;;;;9.57;6.95;;;21.10;78.80;;;;;;5015398;28;20225;-55
2023/05/15 11:57:48;;;;;;;41.92;29.38;;;21.40;78.90;;;;;;5031180;28;20527;-58
2023/05/15 12:00:14;;;;;;;43.00;27.17;;;21.50;74.70;;;;;;5014531;28;20030;-58
2023/05/15 12:02:40;;;;;;;7.97;7.17;;;21.60;73.50;;;;;;5024313;28;20074;-59
2023/05/15 12:05:07;;;;;;;5.97;5.38;;;21.70;74.50;;;;;;5017700;28;20686;-58
2023/05/15 12:07:37;;;;;;;;;;;21.90;76.40;;;;;;5030770;28;20036;-58
2023/05/15 12:10:03;;;;;;;6.43;5.15;;;22.30;75.50;;;;;;5030442;28;19905;-53
2023/05/15 12:12:29;;;;;;;5.80;5.20;;;22.80;72.70;;;;;;5014210;28;20480;-53
2023/05/15 12:14:58;;;;;;;6.30;5.15;;;23.10;73.30;;;;;;5023587;28;20025;-50
2023/05/15 12:17:24;;;;;;;5.63;5.13;;;23.20;69.80;;;;;;5012164;28;20651;-48
2023/05/15 12:19:51;;;;;;;6.10;5.50;;;23.30;71.40;;;;;;5012986;28;20040;-53
2023/05/15 12:22:17;;;;;;;5.60;4.97;;;23.50;69.40;;;;;;5013899;28;20025;-53
2023/05/15 12:24:44;;;;;;;6.55;5.20;;;23.50;67.60;;;;;;5022104;28;20030;-52
2023/05/15 12:27:11;;;;;;;5.18;4.70;;;23.50;65.50;;;;;;5029070;28;20040;-50
2023/05/15 12:29:38;;;;;;;4.65;4.20;;;23.60;65.80;;;;;;5012783;28;20026;-47
2023/05/15 12:32:04;;;;;;;;;;;23.60;66.30;;;;;;5023658;28;20058;-53
2023/05/15 12:34:30;;;;;;;6.80;5.05;;;23.60;67.20;;;;;;5019999;28;19944;-55
2023/05/15 12:36:58;;;;;;;4.37;3.63;;;23.60;67.70;;;;;;5017450;28;20029;-50